Time;durP1;ratioP1;P1;durP2;ratioP2;P2;SDS_P1;SDS_P2;PMS_P1;PMS_P2;Temp;Humidity;BMP_temperature;BMP_pressure;BME280_temperature;BME280_humidity;BME280_pressure;Samples;Min_cycle;Max_cycle;Signal;HPM_P1;HPM_P2
2021/10/10 00:01:07;;;;;;;;;;;9.70;99.90;;;;;;5071864;28;20368;-80
2021/10/10 00:03:33;;;;;;;;;;;9.70;1.00;;;;;;5097710;28;19916;-80
2021/10/10 00:05:58;;;;;;;;;;;9.60;1.00;;;;;;5080624;28;19912;-80
2021/10/10 00:08:24;;;;;;;;;;;9.60;99.90;;;;;;5099164;28;19923;-80
2021/10/10 00:10:49;;;;;;;;;;;9.50;99.90;;;;;;5097584;28;19955;-80
2021/10/10 00:13:15;;;;;;;;;;;9.50;99.90;;;;;;5080389;28;19923;-80
2021/10/10 00:15:41;;;;;;;;;;;9.50;99.90;;;;;;5080559;28;19912;-79
2021/10/10 00:18:07;;;;;;;;;;;9.50;63.30;;;;;;5099184;28;19912;-79
2021/10/10 00:20:32;;;;;;;;;;;9.40;1.00;;;;;;5071165;28;20375;-79
2021/10/10 00:22:58;;;;;;;;;;;9.40;1.00;;;;;;5080612;28;19916;-80
2021/10/10 00:25:23;;;;;;;;;;;9.40;37.50;;;;;;5097062;28;19920;-79
2021/10/10 00:27:49;;;;;;;;;;;9.30;1.00;;;;;;5080307;28;19919;-81
2021/10/10 00:30:17;;;;;;;;;;;9.20;1.00;;;;;;5076737;28;19916;-80
2021/10/10 00:32:42;;;;;;;;;;;9.10;1.00;;;;;;5080602;28;19908;-80
2021/10/10 00:35:09;;;;;;;;;;;9.00;46.40;;;;;;5090846;28;19913;-80
2021/10/10 00:37:34;;;;;;;;;;;9.00;99.90;;;;;;5096425;28;19976;-81
2021/10/10 00:40:00;;;;;;;;;;;8.90;1.00;;;;;;5096862;28;20002;-80
2021/10/10 00:42:26;;;;;;;;;;;8.90;1.00;;;;;;5079960;28;19908;-80
2021/10/10 00:44:51;;;;;;;;;;;8.90;1.00;;;;;;5079724;28;20002;-80
2021/10/10 00:47:17;;;;;;;;;;;8.90;1.00;;;;;;5080389;28;20006;-79
2021/10/10 00:49:42;;;;;;;;;;;8.90;1.00;;;;;;5078843;28;20387;-80
2021/10/10 00:52:10;;;;;;;;;;;8.80;99.90;;;;;;5097257;28;20349;-80
2021/10/10 00:54:36;;;;;;;;;;;8.80;99.90;;;;;;5073053;28;20003;-80
2021/10/10 00:57:04;;;;;;;;;;;8.80;99.90;;;;;;5098498;28;19940;-80
2021/10/10 00:59:31;;;;;;;;;;;8.70;99.90;;;;;;5077549;28;19927;-80
2021/10/10 01:01:57;;;;;;;;;;;8.70;99.90;;;;;;5071601;28;19917;-80
2021/10/10 01:04:22;;;;;;;;;;;8.70;99.90;;;;;;5097445;28;19916;-80
2021/10/10 01:06:48;;;;;;;;;;;8.60;1.00;;;;;;5066615;28;19988;-80
2021/10/10 01:09:14;;;;;;;;;;;8.60;1.00;;;;;;5074404;28;19916;-80
2021/10/10 01:11:40;;;;;;;;;;;8.60;1.00;;;;;;5095074;28;20399;-80
2021/10/10 01:14:06;;;;;;;;;;;8.60;57.60;;;;;;5080620;28;19931;-79
2021/10/10 01:16:31;;;;;;;;;;;8.60;28.60;;;;;;5063018;28;20018;-81
2021/10/10 01:18:57;;;;;;;;;;;8.50;98.70;;;;;;5078332;28;19923;-80
2021/10/10 01:21:23;;;;;;;;;;;8.50;99.90;;;;;;5096813;28;19912;-80
2021/10/10 01:23:49;;;;;;;;;;;8.40;99.90;;;;;;5079846;28;19973;-80
2021/10/10 01:26:14;;;;;;;;;;;8.40;99.90;;;;;;5087092;28;19912;-80
2021/10/10 01:28:40;;;;;;;;;;;8.50;99.90;;;;;;5089144;28;20005;-81
2021/10/10 01:31:05;;;;;;;;;;;8.40;99.90;;;;;;5078824;28;20344;-80
2021/10/10 01:33:31;;;;;;;;;;;8.30;1.00;;;;;;5080162;28;20253;-80
2021/10/10 01:35:56;;;;;;;;;;;8.20;1.00;;;;;;5079031;28;19912;-80
2021/10/10 01:38:22;;;;;;;;;;;8.20;1.00;;;;;;5093099;28;19959;-80
2021/10/10 01:40:47;;;;;;;;;;;8.20;13.60;;;;;;5093278;28;19998;-80
2021/10/10 01:43:13;;;;;;;;;;;8.20;1.00;;;;;;5089943;28;19912;-80
2021/10/10 01:45:39;;;;;;;;;;;8.20;10.40;;;;;;5078847;28;19913;-80
2021/10/10 01:48:04;;;;;;;;;;;8.20;1.00;;;;;;5080022;28;19974;-80
2021/10/10 01:50:32;;;;;;;;;;;8.20;1.00;;;;;;5073723;28;19966;-80
2021/10/10 01:52:57;;;;;;;;;;;8.10;1.00;;;;;;5064947;28;19973;-80
2021/10/10 01:55:23;;;;;;;;;;;8.10;99.90;;;;;;5078401;28;19916;-80
2021/10/10 01:57:48;;;;;;;;;;;8.10;96.40;;;;;;5079119;28;19957;-80
2021/10/10 02:00:14;;;;;;;;;;;8.10;1.00;;;;;;5090974;28;20252;-80
2021/10/10 02:02:40;;;;;;;;;;;8.10;1.00;;;;;;5092882;28;20285;-80
2021/10/10 02:05:06;;;;;;;;;;;8.10;1.00;;;;;;5082085;28;19919;-81
2021/10/10 02:07:31;;;;;;;;;;;8.10;1.00;;;;;;5101940;28;19912;-80
2021/10/10 02:09:56;;;;;;;;;;;8.10;1.00;;;;;;5074897;28;19922;-80
2021/10/10 02:12:22;;;;;;;;;;;8.10;1.00;;;;;;5081729;28;19916;-80
2021/10/10 02:14:48;;;;;;;;;;;8.10;1.00;;;;;;5082884;28;19934;-81
2021/10/10 02:17:13;;;;;;;;;;;8.10;1.00;;;;;;5100766;28;19923;-80
2021/10/10 02:19:39;;;;;;;;;;;8.10;1.00;;;;;;5078889;28;19917;-79
2021/10/10 02:22:04;;;;;;;;;;;8.10;99.90;;;;;;5087048;28;19908;-79
2021/10/10 02:24:30;;;;;;;;;;;8.10;99.90;;;;;;5099080;28;19920;-80
2021/10/10 02:26:55;;;;;;;;;;;8.10;2.00;;;;;;5082474;28;20005;-80
2021/10/10 02:29:21;;;;;;;;;;;8.00;49.70;;;;;;5081398;28;19950;-80
2021/10/10 02:31:47;;;;;;;;;;;8.00;37.50;;;;;;5082226;28;19919;-80
2021/10/10 02:34:13;;;;;;;;;;;7.90;58.20;;;;;;5072701;28;19972;-79
2021/10/10 02:36:40;;;;;;;;;;;7.90;99.90;;;;;;5079867;28;19919;-79
2021/10/10 02:39:05;;;;;;;;;;;7.90;99.90;;;;;;5086670;28;20376;-80
2021/10/10 02:41:30;;;;;;;;;;;7.90;99.90;;;;;;5098263;28;19912;-80
2021/10/10 02:43:56;;;;;;;;;;;7.90;99.90;;;;;;5080111;28;19912;-80
2021/10/10 02:46:22;;;;;;;;;;;7.80;99.90;;;;;;5081880;28;19915;-80
2021/10/10 02:48:47;;;;;;;;;;;7.80;99.90;;;;;;5073750;28;19944;-80
2021/10/10 02:51:13;;;;;;;;;;;7.80;99.90;;;;;;5098305;28;19922;-80
2021/10/10 02:53:39;;;;;;;;;;;7.80;70.20;;;;;;5079327;28;19916;-81
2021/10/10 02:56:04;;;;;;;;;;;7.70;85.00;;;;;;5099006;28;19951;-79
2021/10/10 02:58:30;;;;;;;;;;;7.70;58.30;;;;;;5100049;28;19922;-81
2021/10/10 03:00:55;;;;;;;;;;;7.70;44.20;;;;;;5075708;28;19913;-80
2021/10/10 03:03:21;;;;;;;;;;;7.70;20.50;;;;;;5081448;28;19919;-80
2021/10/10 03:05:46;;;;;;;;;;;7.70;17.50;;;;;;5088888;28;19952;-80
2021/10/10 03:08:12;;;;;;;;;;;7.70;69.50;;;;;;5082754;28;19942;-80
2021/10/10 03:10:37;;;;;;;;;;;7.70;99.90;;;;;;5082054;28;19908;-80
2021/10/10 03:13:03;;;;;;;;;;;7.70;99.90;;;;;;5081127;28;19923;-80
2021/10/10 03:15:28;;;;;;;;;;;7.80;99.90;;;;;;5099273;28;20014;-78
2021/10/10 03:17:54;;;;;;;;;;;7.80;99.90;;;;;;5081281;28;19912;-80
2021/10/10 03:20:19;;;;;;;;;;;7.70;99.90;;;;;;5082277;28;19908;-80
2021/10/10 03:22:45;;;;;;;;;;;7.70;99.90;;;;;;5100304;28;19951;-80
2021/10/10 03:25:10;;;;;;;;;;;7.60;99.90;;;;;;5085402;28;19909;-80
2021/10/10 03:27:36;;;;;;;;;;;7.60;99.90;;;;;;5081448;28;19966;-79
2021/10/10 03:30:01;;;;;;;;;;;7.60;99.90;;;;;;5072031;28;19912;-80
2021/10/10 03:32:27;;;;;;;;;;;7.60;99.90;;;;;;5091091;28;19912;-80
2021/10/10 03:34:52;;;;;;;;;;;7.60;99.90;;;;;;5099131;28;19916;-80
2021/10/10 03:37:18;;;;;;;;;;;7.60;99.90;;;;;;5083707;28;19920;-80
2021/10/10 03:39:43;;;;;;;;;;;7.50;99.90;;;;;;5097681;28;19966;-80
2021/10/10 03:42:09;;;;;;;;;;;7.50;99.90;;;;;;5098006;28;19938;-79
2021/10/10 03:44:34;;;;;;;;;;;7.50;99.90;;;;;;5082308;28;19908;-79
2021/10/10 03:47:00;;;;;;;;;;;7.40;99.90;;;;;;5082583;28;19920;-79
2021/10/10 03:49:26;;;;;;;;;;;7.40;1.00;;;;;;5066302;28;19912;-80
2021/10/10 03:51:52;;;;;;;;;;;7.30;1.00;;;;;;5092973;28;19983;-81
2021/10/10 03:56:42;;;;;;;;;;;7.30;99.90;;;;;;5099354;28;20379;-79
2021/10/10 03:59:08;;;;;;;;;;;7.30;99.90;;;;;;5100086;28;19912;-80
2021/10/10 04:01:34;;;;;;;;;;;7.30;99.90;;;;;;5098926;28;19944;-80
2021/10/10 04:03:59;;;;;;;;;;;7.30;99.90;;;;;;5093895;28;19913;-80
2021/10/10 04:06:24;;;;;;;;;;;7.30;99.90;;;;;;5095776;28;19912;-80
2021/10/10 04:08:50;;;;;;;;;;;7.30;99.90;;;;;;5081438;28;19961;-80
2021/10/10 04:11:16;;;;;;;;;;;7.30;99.90;;;;;;5098184;28;20045;-81
2021/10/10 04:13:41;;;;;;;;;;;7.30;99.90;;;;;;5081734;28;19908;-80
2021/10/10 04:16:07;;;;;;;;;;;7.30;99.90;;;;;;5099542;28;19919;-81
2021/10/10 04:18:33;;;;;;;;;;;7.20;99.90;;;;;;5078970;28;20128;-81
2021/10/10 04:20:59;;;;;;;;;;;7.20;99.90;;;;;;5080491;28;19938;-81
2021/10/10 04:23:24;;;;;;;;;;;7.20;99.90;;;;;;5072261;28;20019;-81
2021/10/10 04:25:50;;;;;;;;;;;7.20;99.90;;;;;;5080406;28;20011;-81
2021/10/10 04:28:15;;;;;;;;;;;7.20;1.00;;;;;;5091080;28;20024;-79
2021/10/10 04:30:41;;;;;;;;;;;7.20;1.00;;;;;;5079664;28;19919;-79
2021/10/10 04:33:08;;;;;;;;;;;7.10;99.90;;;;;;5079504;28;19941;-79
2021/10/10 04:35:34;;;;;;;;;;;7.10;1.00;;;;;;5071702;28;19999;-80
2021/10/10 04:37:59;;;;;;;;;;;7.10;1.00;;;;;;5093104;28;19955;-79
2021/10/10 04:40:25;;;;;;;;;;;7.10;1.00;;;;;;5081199;28;19909;-80
2021/10/10 04:42:50;;;;;;;;;;;7.20;1.00;;;;;;5073297;28;19965;-81
2021/10/10 04:45:16;;;;;;;;;;;7.10;1.00;;;;;;5080234;28;19912;-80
2021/10/10 04:47:41;;;;;;;;;;;7.10;1.00;;;;;;5077394;28;19908;-80
2021/10/10 04:50:07;;;;;;;;;;;7.10;1.00;;;;;;5076414;28;20383;-79
2021/10/10 04:52:32;;;;;;;;;;;7.10;1.00;;;;;;5099734;28;19915;-80
2021/10/10 04:54:58;;;;;;;;;;;7.00;1.00;;;;;;5079646;28;20467;-80
2021/10/10 04:57:23;;;;;;;;;;;7.00;1.00;;;;;;5095129;28;19912;-80
2021/10/10 04:59:52;;;;;;;;;;;7.00;1.00;;;;;;5079048;28;19916;-81
2021/10/10 05:02:18;;;;;;;;;;;7.00;1.00;;;;;;5063574;28;19909;-81
2021/10/10 05:04:43;;;;;;;;;;;6.90;1.00;;;;;;5090771;28;19916;-80
2021/10/10 05:07:09;;;;;;;;;;;6.90;1.00;;;;;;5082658;28;19919;-81
2021/10/10 05:09:34;;;;;;;;;;;6.90;1.00;;;;;;5075310;28;19947;-81
2021/10/10 05:12:00;;;;;;;;;;;6.90;1.00;;;;;;5093166;28;19931;-80
2021/10/10 05:14:25;;;;;;;;;;;6.90;1.00;;;;;;5079368;28;19940;-79
2021/10/10 05:16:51;;;;;;;;;;;6.90;1.00;;;;;;5086072;28;19912;-81
2021/10/10 05:19:16;;;;;;;;;;;6.90;1.00;;;;;;5078727;28;20549;-80
2021/10/10 05:21:41;;;;;;;;;;;6.90;1.00;;;;;;5068113;28;19918;-80
2021/10/10 05:24:07;;;;;;;;;;;6.80;1.00;;;;;;5069225;28;20392;-79
2021/10/10 05:26:32;;;;;;;;;;;6.80;1.00;;;;;;5072334;28;19912;-79
2021/10/10 05:28:58;;;;;;;;;;;6.80;1.00;;;;;;5093482;28;20383;-79
2021/10/10 05:31:23;;;;;;;;;;;6.80;1.00;;;;;;5074829;28;19912;-79
2021/10/10 05:33:49;;;;;;;;;;;6.80;1.00;;;;;;5075676;28;20029;-80
2021/10/10 05:36:14;;;;;;;;;;;6.80;1.00;;;;;;5063705;28;19912;-80
2021/10/10 05:38:40;;;;;;;;;;;6.80;1.00;;;;;;5080960;23;19987;-82
2021/10/10 05:41:05;;;;;;;;;;;6.80;1.00;;;;;;5051896;28;19919;-82
2021/10/10 05:43:31;;;;;;;;;;;6.80;1.00;;;;;;5055350;28;19967;-82
2021/10/10 05:45:57;;;;;;;;;;;6.90;1.00;;;;;;5046551;28;19915;-81
2021/10/10 05:48:22;;;;;;;;;;;7.00;99.90;;;;;;5052695;28;19913;-82
2021/10/10 05:50:48;;;;;;;;;;;7.00;1.00;;;;;;5054441;28;19921;-82
2021/10/10 05:53:13;;;;;;;;;;;7.10;1.00;;;;;;5055770;28;19996;-82
2021/10/10 05:55:40;;;;;;;;;;;7.20;1.00;;;;;;5053988;28;20300;-81
2021/10/10 05:58:08;;;;;;;;;;;7.30;1.00;;;;;;5053922;28;19986;-82
2021/10/10 06:00:34;;;;;;;;;;;7.30;1.00;;;;;;5051969;28;20329;-82
2021/10/10 06:02:59;;;;;;;;;;;7.40;99.90;;;;;;5053076;28;19920;-81
2021/10/10 06:05:25;;;;;;;;;;;7.60;99.90;;;;;;5053507;28;19966;-82
2021/10/10 06:07:50;;;;;;;;;;;7.70;99.90;;;;;;5052367;28;19917;-82
2021/10/10 06:10:16;;;;;;;;;;;7.80;99.90;;;;;;5053424;28;21152;-82
2021/10/10 06:12:41;;;;;;;;;;;8.00;99.90;;;;;;5054297;28;19912;-82
2021/10/10 06:15:08;;;;;;;;;;;8.10;99.90;;;;;;5054574;28;19952;-82
2021/10/10 06:17:34;;;;;;;;;;;8.20;99.90;;;;;;5053406;28;19924;-82
2021/10/10 06:20:00;;;;;;;;;;;8.40;1.00;;;;;;5052755;28;20400;-82
2021/10/10 06:22:26;;;;;;;;;;;8.40;1.00;;;;;;5056640;28;20400;-82
2021/10/10 06:24:51;;;;;;;;;;;8.50;99.90;;;;;;5057542;28;20003;-81
2021/10/10 06:27:17;;;;;;;;;;;8.70;99.90;;;;;;5054489;28;20269;-80
2021/10/10 06:29:44;;;;;;;;;;;8.80;1.00;;;;;;5053325;28;19962;-82
2021/10/10 06:32:09;;;;;;;;;;;8.90;99.90;;;;;;5055516;28;19987;-81
2021/10/10 06:34:34;;;;;;;;;;;9.10;11.40;;;;;;5052328;28;19913;-81
2021/10/10 06:37:00;;;;;;;;;;;9.60;1.00;;;;;;5054580;28;20438;-82
2021/10/10 06:39:26;;;;;;;;;;;11.00;99.90;;;;;;5052346;28;19923;-82
2021/10/10 06:41:51;;;;;;;;;;;12.10;99.90;;;;;;5054330;28;19913;-82
2021/10/10 06:44:17;;;;;;;;;;;13.10;1.00;;;;;;5051926;28;20018;-82
2021/10/10 06:46:44;;;;;;;;;;;14.20;38.00;;;;;;5049381;28;19915;-83
2021/10/10 06:49:10;;;;;;;;;;;16.10;1.00;;;;;;5053375;28;19917;-83
2021/10/10 06:51:35;;;;;;;;;;;18.40;1.00;;;;;;5062666;28;19936;-83
2021/10/10 06:54:01;;;;;;;;;;;20.60;99.90;;;;;;5061699;28;20441;-84
2021/10/10 06:56:26;;;;;;;;;;;22.60;99.90;;;;;;5062679;28;19912;-84
2021/10/10 06:58:51;;;;;;;;;;;24.20;99.90;;;;;;5061472;28;19917;-84
2021/10/10 07:01:17;;;;;;;;;;;25.60;99.90;;;;;;5062002;28;19908;-83
2021/10/10 07:03:42;;;;;;;;;;;26.90;99.90;;;;;;5059720;28;20007;-83
2021/10/10 07:06:08;;;;;;;;;;;27.90;99.90;;;;;;5061150;28;19913;-83
2021/10/10 07:08:34;;;;;;;;;;;28.80;99.90;;;;;;5058572;28;20435;-84
2021/10/10 07:10:59;;;;;;;;;;;29.60;99.90;;;;;;5059558;28;19909;-84
2021/10/10 07:13:25;;;;;;;;;;;30.00;99.90;;;;;;5057709;28;20011;-83
2021/10/10 07:15:51;;;;;;;;;;;29.60;99.90;;;;;;5051141;28;20381;-84
2021/10/10 07:18:21;;;;;;;;;;;30.60;99.90;;;;;;5050096;28;19913;-84
2021/10/10 07:20:56;;;;;;;;;;;31.50;99.90;;;;;;5056603;28;19996;-83
2021/10/10 07:25:57;;;;;;;;;;;31.90;99.90;;;;;;5055412;28;19972;-83
2021/10/10 07:28:23;;;;;;;;;;;31.90;99.90;;;;;;5055385;28;19956;-83
2021/10/10 07:30:48;;;;;;;;;;;31.20;99.90;;;;;;5055707;28;19912;-84
2021/10/10 07:33:14;;;;;;;;;;;30.80;99.90;;;;;;5055601;28;20410;-85
2021/10/10 07:35:40;;;;;;;;;;;31.50;99.90;;;;;;5053585;28;19913;-83
2021/10/10 07:38:05;;;;;;;;;;;32.00;99.90;;;;;;5057865;28;19913;-83
2021/10/10 07:40:31;;;;;;;;;;;32.10;99.90;;;;;;5054452;28;19948;-83
2021/10/10 07:42:56;;;;;;;;;;;32.40;99.90;;;;;;5045891;28;19913;-84
2021/10/10 07:45:24;;;;;;;;;;;33.20;99.90;;;;;;5045573;28;20362;-83
2021/10/10 07:47:50;;;;;;;;;;;33.20;99.90;;;;;;5052681;28;19913;-83
2021/10/10 07:50:17;;;;;;;;;;;31.70;99.90;;;;;;5049734;28;19916;-82
2021/10/10 07:52:42;;;;;;;;;;;30.70;99.90;;;;;;5055888;28;19913;-84
2021/10/10 07:55:08;;;;;;;;;;;29.90;99.90;;;;;;5056687;28;19909;-82
2021/10/10 07:57:34;;;;;;;;;;;29.00;99.90;;;;;;5056068;28;19921;-83
2021/10/10 07:59:59;;;;;;;;;;;28.90;99.90;;;;;;5055838;28;20008;-83
2021/10/10 08:02:27;;;;;;;;;;;30.60;99.90;;;;;;5051916;28;19921;-83
2021/10/10 08:04:52;;;;;;;;;;;31.60;99.90;;;;;;5054878;28;20403;-83
2021/10/10 08:07:18;;;;;;;;;;;31.60;99.90;;;;;;5054546;28;19913;-83
2021/10/10 08:09:43;;;;;;;;;;;31.90;99.90;;;;;;5056649;28;19916;-83
2021/10/10 08:12:10;;;;;;;;;;;33.00;99.90;;;;;;5055993;28;20404;-83
2021/10/10 08:14:36;;;;;;;;;;;34.00;99.90;;;;;;5048419;28;19913;-83
2021/10/10 08:17:01;;;;;;;;;;;34.80;99.90;;;;;;5055729;28;20289;-83
2021/10/10 08:19:27;;;;;;;;;;;35.50;99.90;;;;;;5057904;28;19952;-83
2021/10/10 08:21:52;;;;;;;;;;;36.20;99.90;;;;;;5054579;28;19941;-84
2021/10/10 08:24:19;;;;;;;;;;;36.70;99.90;;;;;;5054971;28;19912;-83
2021/10/10 08:26:47;;;;;;;;;;;37.00;99.90;;;;;;5055465;28;20413;-84
2021/10/10 08:29:12;;;;;;;;;;;37.20;99.90;;;;;;5051793;28;21623;-83
2021/10/10 08:31:38;;;;;;;;;;;37.10;99.90;;;;;;5056171;28;20007;-84
2021/10/10 08:34:03;;;;;;;;;;;36.80;99.90;;;;;;5057811;28;19978;-84
2021/10/10 08:36:29;;;;;;;;;;;37.00;99.90;;;;;;5060672;28;20384;-84
2021/10/10 08:38:54;;;;;;;;;;;37.30;99.90;;;;;;5058577;28;19917;-84
2021/10/10 08:41:23;;;;;;;;;;;37.60;99.90;;;;;;5062746;28;19913;-84
2021/10/10 08:43:49;;;;;;;;;;;37.80;99.90;;;;;;5064020;28;19912;-83
2021/10/10 08:46:22;;;;;;;;;;;37.70;99.90;;;;;;5061313;28;19919;-84
2021/10/10 08:48:48;;;;;;;;;;;37.30;99.90;;;;;;5056454;28;19967;-81
2021/10/10 08:51:13;;;;;;;;;;;36.80;99.90;;;;;;5055305;28;19913;-81
2021/10/10 08:53:39;;;;;;;;;;;36.40;99.90;;;;;;5056963;28;20460;-81
2021/10/10 08:56:04;;;;;;;;;;;36.10;99.90;;;;;;5056853;28;19912;-80
2021/10/10 08:58:36;;;;;;;;;;;36.00;99.90;;;;;;5056152;28;19917;-81
2021/10/10 09:01:04;;;;;;;;;;;36.30;99.90;;;;;;5053831;28;20355;-82
2021/10/10 09:03:31;;;;;;;;;;;36.90;99.90;;;;;;5054510;28;19976;-81
2021/10/10 09:05:56;;;;;;;;;;;37.00;99.90;;;;;;5054708;28;19952;-81
2021/10/10 09:08:22;;;;;;;;;;;36.70;99.90;;;;;;5054742;28;19913;-81
2021/10/10 09:10:58;;;;;;;;;;;36.60;99.90;;;;;;5044357;28;19920;-81
2021/10/10 09:13:30;;;;;;;;;;;36.90;99.90;;;;;;5067713;28;19970;-82
2021/10/10 09:15:56;;;;;;;;;;;37.30;99.90;;;;;;5047240;28;20373;-81
2021/10/10 09:18:30;;;;;;;;;;;37.80;99.90;;;;;;5038687;28;19923;-81
2021/10/10 09:20:56;;;;;;;;;;;38.40;99.90;;;;;;5040392;28;20004;-82
2021/10/10 09:23:21;;;;;;;;;;;39.10;99.90;;;;;;5067359;28;19940;-82
2021/10/10 09:25:52;;;;;;;;;;;39.50;99.90;;;;;;5054993;28;20436;-81
2021/10/10 09:28:19;;;;;;;;;;;39.60;99.90;;;;;;5048036;28;19952;-80
2021/10/10 09:30:46;;;;;;;;;;;39.70;99.90;;;;;;5053355;28;19916;-82
2021/10/10 09:33:11;;;;;;;;;;;39.80;99.90;;;;;;5049315;28;19943;-81
2021/10/10 09:35:37;;;;;;;;;;;39.90;99.90;;;;;;5050756;28;19999;-81
2021/10/10 09:38:21;;;;;;;;;;;38.60;99.90;;;;;;5053492;28;19924;-82
2021/10/10 09:40:54;;;;;;;;;;;37.60;99.90;;;;;;5042014;28;19919;-80
2021/10/10 09:43:19;;;;;;;;;;;37.00;99.90;;;;;;5049832;28;19948;-81
2021/10/10 09:48:14;;;;;;;;;;;36.00;99.90;;;;;;5052745;28;19913;-81
2021/10/10 09:50:47;;;;;;;;;;;35.20;99.90;;;;;;5048354;28;19967;-81
2021/10/10 09:53:12;;;;;;;;;;;34.40;99.90;;;;;;5054961;28;20380;-81
2021/10/10 09:55:53;;;;;;;;;;;33.60;99.90;;;;;;5057329;28;19921;-81
2021/10/10 09:58:37;;;;;;;;;;;33.30;99.90;;;;;;5057094;28;19917;-80
2021/10/10 10:01:15;;;;;;;;;;;33.10;99.90;;;;;;5049520;28;20387;-81
2021/10/10 10:03:59;;;;;;;;;;;33.30;99.90;;;;;;5051118;28;19921;-81
2021/10/10 10:06:27;;;;;;;;;;;33.60;99.90;;;;;;5054327;28;20012;-81
2021/10/10 10:08:53;;;;;;;;;;;34.20;99.90;;;;;;5049410;28;19913;-81
2021/10/10 10:11:19;;;;;;;;;;;34.60;99.90;;;;;;5045790;28;20369;-81
2021/10/10 10:13:44;;;;;;;;;;;34.90;99.90;;;;;;5052880;28;19920;-81
2021/10/10 10:16:14;;;;;;;;;;;35.40;99.90;;;;;;5061046;28;19919;-82
2021/10/10 10:18:41;;;;;;;;;;;35.70;99.90;;;;;;5057802;28;20348;-80
2021/10/10 10:21:07;;;;;;;;;;;35.10;99.90;;;;;;5057982;28;19913;-79
2021/10/10 10:23:34;;;;;;;;;;;34.60;99.90;;;;;;5054624;28;20377;-81
2021/10/10 10:26:00;;;;;;;;;;;34.80;99.90;;;;;;5061722;28;19979;-80
2021/10/10 10:28:26;;;;;;;;;;;35.00;99.90;;;;;;5063159;28;20377;-81
2021/10/10 10:30:51;;;;;;;;;;;34.90;99.90;;;;;;5055555;28;19917;-81
2021/10/10 10:33:18;;;;;;;;;;;34.60;99.90;;;;;;5060969;28;19920;-80
2021/10/10 10:35:44;;;;;;;;;;;33.50;99.90;;;;;;5056565;28;19968;-81
2021/10/10 10:38:10;;;;;;;;;;;32.70;99.90;;;;;;5062643;28;19917;-81
2021/10/10 10:40:38;;;;;;;;;;;32.10;99.90;;;;;;5059271;28;19912;-81
2021/10/10 10:43:04;;;;;;;;;;;31.30;99.90;;;;;;5060888;28;20003;-81
2021/10/10 10:45:33;;;;;;;;;;;30.60;99.90;;;;;;5062346;28;19959;-82
2021/10/10 10:47:59;;;;;;;;;;;30.50;99.90;;;;;;5063412;28;19958;-81
2021/10/10 10:50:25;;;;;;;;;;;30.50;99.90;;;;;;5058146;28;19913;-81
2021/10/10 10:52:58;;;;;;;;;;;30.10;99.90;;;;;;5055466;28;19921;-81
2021/10/10 10:55:24;;;;;;;;;;;29.90;99.90;;;;;;5055950;28;19912;-82
2021/10/10 10:57:51;;;;;;;;;;;30.00;99.90;;;;;;5057021;28;19913;-80
2021/10/10 11:00:19;;;;;;;;;;;30.70;99.90;;;;;;5060901;28;20331;-81
2021/10/10 11:02:48;;;;;;;;;;;31.20;99.90;;;;;;5041165;28;19913;-81
2021/10/10 11:05:27;;;;;;;;;;;32.20;99.90;;;;;;5041232;28;19909;-81
2021/10/10 11:07:52;;;;;;;;;;;33.30;99.90;;;;;;5040655;28;20416;-80
2021/10/10 11:10:18;;;;;;;;;;;33.90;99.90;;;;;;5039663;28;19916;-80
2021/10/10 11:12:43;;;;;;;;;;;33.60;99.90;;;;;;5039258;28;19952;-80
2021/10/10 11:15:12;;;;;;;;;;;33.40;99.90;;;;;;5039817;28;20357;-81
2021/10/10 11:17:38;;;;;;;;;;;32.80;99.90;;;;;;5039132;28;20191;-81
2021/10/10 11:20:04;;;;;;;;;;;32.10;99.90;;;;;;5057205;28;19999;-81
2021/10/10 11:22:29;;;;;;;;;;;31.40;99.90;;;;;;5059880;28;19936;-81
2021/10/10 11:24:55;;;;;;;;;;;30.60;99.90;;;;;;5059217;28;19908;-81
2021/10/10 11:27:22;;;;;;;;;;;30.30;99.90;;;;;;5059636;28;19920;-81
2021/10/10 11:29:50;;;;;;;;;;;29.90;99.90;;;;;;5059764;28;19909;-81
2021/10/10 11:32:16;;;;;;;;;;;29.40;99.90;;;;;;5059729;28;19968;-81
2021/10/10 11:34:41;;;;;;;;;;;29.90;99.90;;;;;;5063034;28;19951;-81
2021/10/10 11:37:16;;;;;;;;;;;30.60;99.90;;;;;;5062171;28;19908;-81
2021/10/10 11:39:41;;;;;;;;;;;31.80;99.90;;;;;;5061170;28;19928;-81
2021/10/10 11:42:10;;;;;;;;;;;32.70;99.90;;;;;;5060192;28;19912;-82
2021/10/10 11:44:43;;;;;;;;;;;33.10;99.90;;;;;;5060128;28;20330;-84
2021/10/10 11:47:18;;;;;;;;;;;33.10;99.90;;;;;;5059667;28;19940;-81
2021/10/10 11:49:45;;;;;;;;;;;32.40;99.90;;;;;;5059043;28;19912;-81
2021/10/10 11:52:31;;;;;;;;;;;32.50;99.90;;;;;;5059472;28;19959;-80
2021/10/10 11:55:08;;;;;;;;;;;33.10;99.90;;;;;;5060083;28;19912;-81
2021/10/10 11:57:33;;;;;;;;;;;33.30;99.90;;;;;;5058011;28;20373;-81
2021/10/10 12:00:19;;;;;;;;;;;33.60;99.90;;;;;;5058425;28;19919;-81
2021/10/10 12:02:46;;;;;;;;;;;33.70;99.90;;;;;;5058929;28;19908;-81
2021/10/10 12:05:13;;;;;;;;;;;33.90;99.90;;;;;;5057883;28;20360;-80
2021/10/10 12:07:39;;;;;;;;;;;34.10;99.90;;;;;;5058854;28;19913;-81
2021/10/10 12:10:06;;;;;;;;;;;34.40;99.90;;;;;;5060822;28;19909;-81
2021/10/10 12:12:31;;;;;;;;;;;34.60;99.90;;;;;;5060028;28;19935;-81
2021/10/10 12:14:58;;;;;;;;;;;34.70;99.90;;;;;;5061435;28;19909;-81
2021/10/10 12:17:34;;;;;;;;;;;34.90;99.90;;;;;;5059888;28;19909;-81
2021/10/10 12:20:01;;;;;;;;;;;34.90;99.90;;;;;;5057934;28;19924;-81
2021/10/10 12:22:26;;;;;;;;;;;34.90;99.90;;;;;;5057540;28;19932;-81
2021/10/10 12:24:52;;;;;;;;;;;34.90;99.90;;;;;;5057137;28;19912;-81
2021/10/10 12:27:25;;;;;;;;;;;34.70;99.90;;;;;;5057914;28;19909;-81
2021/10/10 12:29:50;;;;;;;;;;;34.50;99.90;;;;;;5055934;28;19909;-80
2021/10/10 12:32:19;;;;;;;;;;;34.40;99.90;;;;;;5056035;28;19915;-81
2021/10/10 12:34:44;;;;;;;;;;;34.30;99.90;;;;;;5056357;28;19960;-80
2021/10/10 12:37:17;;;;;;;;;;;34.30;99.90;;;;;;5056237;28;19909;-81
2021/10/10 12:39:43;;;;;;;;;;;34.20;99.90;;;;;;5054453;28;20320;-81
2021/10/10 12:42:09;;;;;;;;;;;34.10;99.90;;;;;;5056339;28;19909;-81
2021/10/10 12:44:34;;;;;;;;;;;34.00;99.90;;;;;;5056080;28;19908;-81
2021/10/10 12:47:01;;;;;;;;;;;33.80;99.90;;;;;;5054937;28;19999;-81
2021/10/10 12:49:37;;;;;;;;;;;33.60;99.90;;;;;;5054306;28;19908;-81
2021/10/10 12:52:05;;;;;;;;;;;33.40;99.90;;;;;;5055606;28;19916;-80
2021/10/10 12:54:31;;;;;;;;;;;33.00;99.90;;;;;;5055778;28;20046;-81
2021/10/10 12:56:59;;;;;;;;;;;32.70;99.90;;;;;;5055818;28;19952;-81
2021/10/10 12:59:24;;;;;;;;;;;32.50;99.90;;;;;;5054416;28;19913;-81
2021/10/10 13:01:50;;;;;;;;;;;32.20;99.90;;;;;;5054794;28;20288;-81
2021/10/10 13:04:16;;;;;;;;;;;32.10;99.90;;;;;;5056467;28;19909;-81
2021/10/10 13:06:42;;;;;;;;;;;32.10;99.90;;;;;;5056249;28;19920;-80
2021/10/10 13:09:10;;;;;;;;;;;32.00;99.90;;;;;;5061324;28;20365;-81
2021/10/10 13:11:36;;;;;;;;;;;31.80;99.90;;;;;;5060281;28;19909;-81
2021/10/10 13:14:01;;;;;;;;;;;31.70;99.90;;;;;;5059994;28;20288;-81
2021/10/10 13:16:26;;;;;;;;;;;31.60;99.90;;;;;;5061017;28;19915;-81
2021/10/10 13:18:52;;;;;;;;;;;31.50;99.90;;;;;;5059865;28;20444;-81
2021/10/10 13:21:17;;;;;;;;;;;31.50;99.90;;;;;;5060128;28;19912;-81
2021/10/10 13:23:43;;;;;;;;;;;31.40;99.90;;;;;;5060449;28;19909;-80
2021/10/10 13:26:08;;;;;;;;;;;31.30;99.90;;;;;;5060434;28;19960;-81
2021/10/10 13:28:34;;;;;;;;;;;31.10;99.90;;;;;;5059770;28;19908;-81
2021/10/10 13:31:01;;;;;;;;;;;30.90;99.90;;;;;;5058229;28;20031;-81
2021/10/10 13:33:27;;;;;;;;;;;30.60;99.90;;;;;;5059683;28;20405;-81
2021/10/10 13:35:52;;;;;;;;;;;30.50;99.90;;;;;;5059660;28;19955;-81
2021/10/10 13:38:17;;;;;;;;;;;30.40;99.90;;;;;;5058311;28;20308;-81
2021/10/10 13:40:43;;;;;;;;;;;30.30;99.90;;;;;;5059463;28;19958;-81
2021/10/10 13:43:08;;;;;;;;;;;30.30;99.90;;;;;;5058935;28;20019;-81
2021/10/10 13:45:36;;;;;;;;;;;30.30;99.90;;;;;;5059381;28;19999;-80
2021/10/10 13:48:01;;;;;;;;;;;30.20;99.90;;;;;;5059489;28;19999;-84
2021/10/10 13:50:30;;;;;;;;;;;30.10;99.90;;;;;;5059212;28;19944;-81
2021/10/10 13:52:56;;;;;;;;;;;30.00;99.90;;;;;;5059274;28;19909;-81
2021/10/10 13:55:21;;;;;;;;;;;29.90;99.90;;;;;;5058384;28;19909;-81
2021/10/10 13:57:46;;;;;;;;;;;29.80;99.90;;;;;;5056498;28;19962;-80
2021/10/10 14:00:12;;;;;;;;;;;29.80;99.90;;;;;;5056359;28;19970;-81
2021/10/10 14:02:38;;;;;;;;;;;29.70;99.90;;;;;;5059474;28;19935;-81
2021/10/10 14:05:03;;;;;;;;;;;29.50;99.90;;;;;;5059601;28;19909;-80
2021/10/10 14:07:29;;;;;;;;;;;29.30;99.90;;;;;;5059102;28;19952;-81
2021/10/10 14:09:54;;;;;;;;;;;29.10;99.90;;;;;;5060115;28;20020;-82
2021/10/10 14:12:20;;;;;;;;;;;29.00;99.90;;;;;;5060542;28;19909;-81
2021/10/10 14:14:45;;;;;;;;;;;28.90;99.90;;;;;;5060141;28;19992;-80
2021/10/10 14:17:11;;;;;;;;;;;28.80;99.90;;;;;;5058844;28;19913;-81
2021/10/10 14:19:37;;;;;;;;;;;28.70;99.90;;;;;;5059195;28;20372;-81
2021/10/10 14:22:02;;;;;;;;;;;28.60;99.90;;;;;;5060114;28;19913;-80
2021/10/10 14:24:28;;;;;;;;;;;28.50;99.90;;;;;;5059475;28;20359;-81
2021/10/10 14:26:54;;;;;;;;;;;28.50;99.90;;;;;;5060655;28;19955;-81
2021/10/10 14:29:19;;;;;;;;;;;28.40;99.90;;;;;;5060200;28;19909;-80